Карточка аэропорта UAKK

Внимание!
Информация на этой странице в стадии наполнения.
Если вы не увидели какой-то информации, или заметили неточность - пожалуйста сообщите нам!
Спасибо!
Команда RU-STAFF
Название аэропортаКараганда
Название аэропорта (англ.)Karaganda
Превышение1768 ft. (538.9 m.)
Координаты49°40.302', 73°20.118'
Высота перехода10000
Эшелон переходаby ATC
Коды ответчика0630-0637, 7220-7227
Зона ОрВДАстана РПИ (UACN)
Данные METARUAKK 260300Z 22009MPS 9999 -SHRA BKN016CB 04/01 Q1005 NOSIG RMK QFE708/0944
Проноз погоды (TAF)UAKK 252122Z 2521/2618 21007MPS 9999 BKN015 BKN040 TX08/2524Z TN01/2606Z TEMPO 2521/2524 23012MPS 3100 -SHRA BKN011 BKN020CB FM260000 23013MPS 5000 -RA BKN011 BKN030 TEMPO 2601/2612 27017G22MPS 2000 SHRASN BKN006 BKN015CB TEMPO 2612/2618 24008G13MPS 3100 -SHRASN BKN020CB
NOTAMshow/hide NOTAM
AWOS   TABLE

Информация о ВПП

ВПП Длина ВПП (м.) Покрытие Курс ВПП Частота ILS
053601Железобетон50109.9
233601Железобетон230111.7

Диспетчерские позиции




Спутниковое изображение